Time;durP1;ratioP1;P1;durP2;ratioP2;P2;SDS_P1;SDS_P2;PMS_P1;PMS_P2;Temp;Humidity;BMP_temperature;BMP_pressure;BME280_temperature;BME280_humidity;BME280_pressure;Samples;Min_cycle;Max_cycle;Signal;HPM_P1;HPM_P2
2022/02/09 00:10:11;;;;;;;2.15;1.00;;;18.10;61.10;;;;;;4992384;28;20033;-66
2022/02/09 00:12:47;;;;;;;1.30;1.10;;;18.10;61.10;;;;;;4992961;28;20026;-66
2022/02/09 00:31:38;;;;;;;1.73;1.25;;;18.10;61.30;;;;;;4914206;29;20031;-67
2022/02/09 00:42:34;;;;;;;0.95;0.90;;;18.00;61.30;;;;;;4913562;29;20115;-67
2022/02/09 01:33:11;;;;;;;2.30;1.00;;;17.90;61.70;;;;;;5021118;28;20068;-66
2022/02/09 01:55:40;;;;;;;2.13;0.80;;;17.90;61.90;;;;;;5034974;28;20057;-66
2022/02/09 01:58:06;;;;;;;1.00;0.90;;;17.90;61.90;;;;;;5034938;28;20026;-66
2022/02/09 02:00:31;;;;;;;1.75;1.05;;;17.90;62.00;;;;;;5017547;28;20510;-66
2022/02/09 02:02:57;;;;;;;0.88;0.80;;;17.90;62.00;;;;;;5034912;28;20112;-66
2022/02/09 02:05:22;;;;;;;1.30;0.90;;;17.90;62.00;;;;;;5017468;28;20030;-66
2022/02/09 02:07:53;;;;;;;1.17;0.88;;;17.90;62.00;;;;;;5034479;28;20033;-66
2022/02/09 02:10:31;;;;;;;1.35;0.90;;;17.90;61.90;;;;;;5017306;28;20021;-66
2022/02/09 02:13:11;;;;;;;0.77;0.77;;;17.90;62.00;;;;;;5034785;28;20025;-66
2022/02/09 02:18:08;;;;;;;1.23;1.00;;;17.90;62.00;;;;;;5017991;28;20049;-66
2022/02/09 02:21:08;;;;;;;0.95;0.85;;;17.90;62.00;;;;;;5035140;28;20018;-66
2022/02/09 03:13:49;;;;;;;0.70;0.70;;;17.70;62.30;;;;;;5014076;28;20029;-66
2022/02/09 03:16:25;;;;;;;0.68;0.68;;;17.70;62.30;;;;;;4998011;28;20168;-66
2022/02/09 03:19:17;;;;;;;0.93;0.82;;;17.70;62.30;;;;;;5013658;28;20113;-66
2022/02/09 03:21:51;;;;;;;0.90;0.90;;;17.70;62.30;;;;;;5013295;28;20080;-66
2022/02/09 03:24:32;;;;;;;0.82;0.70;;;17.70;62.40;;;;;;5013671;28;20032;-66
2022/02/09 03:43:43;;;;;;;0.68;0.68;;;17.70;62.50;;;;;;5013730;28;20064;-66
2022/02/09 03:54:03;;;;;;;0.60;0.60;;;17.70;62.50;;;;;;4996671;28;20465;-66
2022/02/09 03:56:54;;;;;;;1.15;0.88;;;17.70;62.50;;;;;;5013491;28;20117;-66
2022/02/09 03:59:17;;;;;;;0.80;0.70;;;17.70;62.60;;;;;;5013061;28;20050;-66
2022/02/09 04:01:44;;;;;;;0.60;0.60;;;17.70;62.60;;;;;;5013217;28;20452;-66
2022/02/09 04:04:10;;;;;;;0.95;0.77;;;17.70;62.60;;;;;;4995654;28;20022;-66
2022/02/09 04:06:37;;;;;;;2.58;0.90;;;17.70;62.60;;;;;;5012712;28;20026;-66
2022/02/09 04:09:06;;;;;;;1.08;0.90;;;17.70;62.50;;;;;;5013034;28;20025;-66
2022/02/09 04:11:41;;;;;;;0.63;0.63;;;17.70;62.60;;;;;;5007514;28;20440;-66
2022/02/09 04:50:49;;;;;;;0.80;0.80;;;17.60;62.80;;;;;;5032345;28;20029;-66
2022/02/09 04:58:13;;;;;;;0.70;0.70;;;17.60;62.90;;;;;;5032276;28;20057;-66
2022/02/09 05:00:51;;;;;;;0.88;0.73;;;17.60;62.90;;;;;;5015799;28;20029;-66
2022/02/09 05:30:19;;;;;;;0.93;0.60;;;17.60;63.00;;;;;;5005598;28;20117;-66
2022/02/09 05:32:47;;;;;;;0.60;0.60;;;17.50;63.00;;;;;;5031496;28;20096;-66
2022/02/09 05:35:13;;;;;;;0.45;0.45;;;17.50;63.10;;;;;;5014610;28;20045;-66
2022/02/09 05:37:39;;;;;;;0.60;0.60;;;17.60;63.10;;;;;;5014593;28;20025;-66
2022/02/09 05:40:05;;;;;;;0.85;0.85;;;17.60;63.10;;;;;;5031757;28;20032;-66
2022/02/09 05:42:32;;;;;;;1.15;0.68;;;17.60;63.00;;;;;;5014218;28;20025;-66
2022/02/09 05:45:03;;;;;;;0.60;0.60;;;17.60;63.10;;;;;;5016802;28;20064;-66
2022/02/09 05:53:13;;;;;;;1.02;0.80;;;17.50;63.00;;;;;;4978963;28;20042;-66
2022/02/09 05:55:48;;;;;;;0.50;0.50;;;17.50;63.10;;;;;;5018858;28;20057;-66
2022/02/09 06:00:53;;;;;;;0.60;0.52;;;17.60;63.20;;;;;;5019231;28;20037;-66
2022/02/09 06:03:18;;;;;;;0.80;0.80;;;17.50;63.10;;;;;;5034963;28;20030;-66
2022/02/09 06:05:44;;;;;;;0.70;0.70;;;17.50;63.10;;;;;;5035199;28;20026;-66
2022/02/09 06:08:10;;;;;;;0.75;0.70;;;17.50;63.10;;;;;;5034803;28;20444;-66
2022/02/09 06:10:36;;;;;;;0.57;0.57;;;17.50;63.10;;;;;;5034935;28;20096;-66
2022/02/09 06:16:06;;;;;;;0.63;0.63;;;17.50;63.10;;;;;;5008349;28;20136;-66
2022/02/09 06:21:19;;;;;;;0.60;0.60;;;17.50;63.20;;;;;;5033793;28;20095;-66
2022/02/09 06:23:46;;;;;;;2.00;0.75;;;17.50;63.20;;;;;;5033938;28;20018;-66
2022/02/09 06:26:12;;;;;;;0.90;0.70;;;17.50;63.20;;;;;;5033585;28;20509;-66
2022/02/09 06:28:37;;;;;;;0.60;0.60;;;17.50;63.20;;;;;;5033810;28;20100;-66
2022/02/09 06:31:03;;;;;;;0.85;0.65;;;17.50;63.20;;;;;;5034040;28;20052;-66
2022/02/09 06:33:29;;;;;;;0.70;0.70;;;17.50;63.20;;;;;;5034211;28;20021;-66
2022/02/09 06:35:57;;;;;;;0.63;0.63;;;17.50;63.20;;;;;;5034340;28;20021;-66
2022/02/09 06:38:23;;;;;;;1.08;0.70;;;17.50;63.20;;;;;;5016676;28;20029;-66
2022/02/09 06:40:53;;;;;;;0.85;0.60;;;17.50;63.20;;;;;;5034228;28;20388;-66
2022/02/09 06:43:19;;;;;;;0.65;0.65;;;17.50;63.20;;;;;;5017162;28;20475;-66
2022/02/09 06:45:45;;;;;;;1.70;0.40;;;17.50;63.20;;;;;;5034098;28;20025;-65
2022/02/09 06:48:15;;;;;;;0.55;0.45;;;17.50;63.30;;;;;;5034026;28;20105;-65
2022/02/09 06:50:48;;;;;;;0.70;0.60;;;17.50;63.20;;;;;;5034188;28;20013;-65
2022/02/09 06:55:53;;;;;;;0.70;0.60;;;17.50;63.30;;;;;;5033835;28;20033;-65
2022/02/09 06:59:11;;;;;;;0.50;0.50;;;17.50;63.30;;;;;;5033995;28;20036;-65
2022/02/09 07:01:08;;;;;;;0.50;0.50;;;17.50;63.30;;;;;;5011257;28;20088;-65
2022/02/09 07:03:34;;;;;;;0.77;0.57;;;17.50;63.30;;;;;;5033780;28;20515;-65
2022/02/09 07:05:59;;;;;;;0.50;0.50;;;17.50;63.40;;;;;;5033842;28;20087;-65
2022/02/09 07:08:25;;;;;;;1.00;0.70;;;17.50;63.40;;;;;;5033935;28;20022;-65
2022/02/09 07:10:51;;;;;;;1.95;0.55;;;17.50;63.30;;;;;;5033839;28;20093;-65
2022/02/09 07:13:18;;;;;;;0.70;0.60;;;17.50;63.30;;;;;;5033574;28;20036;-65
2022/02/09 07:15:49;;;;;;;1.10;0.68;;;17.50;63.30;;;;;;5016074;28;20041;-65
2022/02/09 07:18:15;;;;;;;2.70;0.80;;;17.50;63.40;;;;;;5033685;28;20025;-65
2022/02/09 07:26:00;;;;;;;4.82;1.13;;;17.50;63.40;;;;;;5033322;28;20403;-65
2022/02/09 07:28:25;;;;;;;5.05;1.65;;;17.50;63.40;;;;;;5017268;28;20159;-65
2022/02/09 07:30:51;;;;;;;6.78;1.65;;;17.50;63.50;;;;;;5033233;28;20109;-65
2022/02/09 07:33:16;;;;;;;6.28;1.77;;;17.50;63.50;;;;;;5015714;28;20018;-65
2022/02/09 07:35:42;;;;;;;7.88;1.65;;;17.50;63.50;;;;;;5033271;28;20025;-65
2022/02/09 07:38:08;;;;;;;9.30;2.28;;;17.50;63.50;;;;;;5033319;28;20026;-65
2022/02/09 07:40:33;;;;;;;5.57;1.60;;;17.50;63.60;;;;;;5033083;28;20033;-65
2022/02/09 07:43:08;;;;;;;10.23;2.58;;;17.60;63.70;;;;;;5032880;28;20091;-65
2022/02/09 07:48:27;;;;;;;6.88;2.17;;;17.60;63.80;;;;;;5033019;28;20025;-65
2022/02/09 07:53:51;;;;;;;6.57;1.75;;;17.60;63.90;;;;;;4971664;28;20039;-65
2022/02/09 07:56:17;;;;;;;6.57;1.90;;;17.60;63.90;;;;;;4971994;28;20449;-65
2022/02/09 07:58:43;;;;;;;6.40;2.38;;;17.60;64.00;;;;;;4942573;29;20035;-65
2022/02/09 08:01:08;;;;;;;6.85;1.80;;;17.60;64.00;;;;;;4952740;29;20038;-65
2022/02/09 08:03:36;;;;;;;8.38;2.22;;;17.60;64.00;;;;;;4952418;29;20420;-65
2022/02/09 08:06:02;;;;;;;5.70;2.00;;;17.60;64.00;;;;;;4951899;28;20055;-65
2022/02/09 08:08:31;;;;;;;5.45;1.67;;;17.60;64.00;;;;;;4920727;29;20019;-65
2022/02/09 08:11:08;;;;;;;6.28;2.10;;;17.60;64.00;;;;;;4952577;29;20106;-65
2022/02/09 08:30:00;;;;;;;5.70;1.70;;;17.50;64.10;;;;;;4963225;28;20032;-65
2022/02/09 08:34:56;;;;;;;5.30;2.17;;;17.50;64.10;;;;;;5015251;28;20456;-65
2022/02/09 08:37:21;;;;;;;2.30;1.50;;;17.50;64.10;;;;;;5014937;28;20022;-65
2022/02/09 08:39:50;;;;;;;6.57;1.67;;;17.50;64.10;;;;;;5032370;28;20442;-65
2022/02/09 08:42:16;;;;;;;4.00;1.60;;;17.50;64.20;;;;;;5032002;28;20060;-65
2022/02/09 08:44:42;;;;;;;5.60;1.77;;;17.60;64.20;;;;;;5032283;28;20109;-65
2022/02/09 08:47:08;;;;;;;4.25;1.60;;;17.50;64.10;;;;;;5032302;28;20112;-65
2022/02/09 08:49:33;;;;;;;5.45;1.52;;;17.50;64.10;;;;;;5032122;28;20018;-65
2022/02/09 08:51:59;;;;;;;2.50;1.33;;;17.50;64.10;;;;;;5014632;28;20033;-65
2022/02/09 08:54:26;;;;;;;4.28;1.25;;;17.50;64.20;;;;;;5032022;28;20495;-65
2022/02/09 08:56:54;;;;;;;3.88;1.52;;;17.50;64.10;;;;;;5032083;28;20081;-65
2022/02/09 08:59:27;;;;;;;2.78;1.55;;;17.50;64.20;;;;;;5032148;28;20029;-65
2022/02/09 09:02:01;;;;;;;;;;;17.50;64.20;;;;;;5016047;28;20053;-65
2022/02/09 09:04:34;;;;;;;3.70;1.30;;;17.50;64.30;;;;;;5015101;28;19905;-65
2022/02/09 09:07:05;;;;;;;;;;;17.50;64.40;;;;;;5032347;28;20048;-65
2022/02/09 10:03:47;;;;;;;3.47;1.35;;;17.40;64.50;;;;;;5019991;28;20060;-65
2022/02/09 10:34:06;;;;;;;2.30;1.08;;;17.30;64.70;;;;;;4960387;28;20042;-65
2022/02/09 10:36:47;;;;;;;3.72;1.27;;;17.40;64.60;;;;;;4973275;28;20629;-65
2022/02/09 10:39:15;;;;;;;1.20;0.95;;;17.40;64.70;;;;;;4973601;28;20583;-65
2022/02/09 10:41:50;;;;;;;1.00;0.90;;;17.30;64.50;;;;;;4973220;28;20505;-65
2022/02/09 10:44:20;;;;;;;1.10;1.00;;;17.40;64.50;;;;;;4957123;28;20382;-65
2022/02/09 10:46:46;;;;;;;2.72;1.38;;;17.30;64.50;;;;;;4973329;28;20022;-65
2022/02/09 10:49:12;;;;;;;2.22;1.30;;;17.40;64.50;;;;;;4973436;28;20110;-65
2022/02/09 10:51:47;;;;;;;2.03;1.10;;;17.40;64.50;;;;;;4972676;28;20545;-65
2022/02/09 10:54:17;;;;;;;2.72;1.27;;;17.40;64.50;;;;;;4973396;28;20134;-65
2022/02/09 10:56:45;;;;;;;1.33;1.15;;;17.40;64.40;;;;;;4973186;28;20074;-65
2022/02/09 10:59:12;;;;;;;1.00;0.90;;;17.40;64.40;;;;;;4973345;28;20097;-65
2022/02/09 11:01:38;;;;;;;1.83;1.10;;;17.40;64.40;;;;;;4973016;28;20497;-65
2022/02/09 11:04:04;;;;;;;2.33;1.30;;;17.40;64.40;;;;;;4973203;28;20041;-65
2022/02/09 11:06:37;;;;;;;1.30;1.05;;;17.40;64.40;;;;;;4972590;28;20030;-65
2022/02/09 11:09:04;;;;;;;1.65;1.40;;;17.40;64.40;;;;;;4972734;28;20085;-65
2022/02/09 11:11:30;;;;;;;2.80;1.40;;;17.40;64.40;;;;;;5004372;28;20064;-65
2022/02/09 11:13:56;;;;;;;2.20;1.50;;;17.40;64.40;;;;;;5016367;28;20021;-65
2022/02/09 11:16:22;;;;;;;2.35;1.48;;;17.40;64.40;;;;;;5015933;28;20045;-65
2022/02/09 11:18:48;;;;;;;1.67;1.00;;;17.40;64.40;;;;;;5016175;28;20049;-65
2022/02/09 11:21:14;;;;;;;2.88;1.35;;;17.40;64.40;;;;;;4999621;28;20052;-65
2022/02/09 11:23:54;;;;;;;1.48;1.00;;;17.40;64.40;;;;;;5033456;28;20084;-65
2022/02/09 11:26:39;;;;;;;2.28;1.60;;;17.40;64.40;;;;;;5016256;28;20025;-65
2022/02/09 11:37:46;;;;;;;1.17;1.00;;;17.40;64.40;;;;;;5033290;28;20515;-65
2022/02/09 11:43:30;;;;;;;1.85;1.00;;;17.40;64.50;;;;;;5018251;28;20041;-65
2022/02/09 11:58:23;;;;;;;1.23;1.13;;;17.30;64.40;;;;;;5006030;28;20030;-65
2022/02/09 12:11:59;;;;;;;1.92;0.98;;;17.30;64.70;;;;;;4996271;28;20403;-65
2022/02/09 12:17:31;;;;;;;1.50;0.82;;;17.40;64.50;;;;;;5032763;28;20025;-65
2022/02/09 12:20:17;;;;;;;1.00;0.80;;;17.30;64.60;;;;;;5016636;28;20113;-65
2022/02/09 12:22:49;;;;;;;1.65;1.02;;;17.30;64.60;;;;;;5032406;28;20091;-65
2022/02/09 12:25:15;;;;;;;0.83;0.80;;;17.30;64.50;;;;;;5015982;28;20025;-65
2022/02/09 12:27:47;;;;;;;1.38;0.95;;;17.30;64.50;;;;;;5014900;28;20033;-65
2022/02/09 12:30:13;;;;;;;1.52;0.95;;;17.30;64.50;;;;;;5032395;28;20021;-65
2022/02/09 12:32:39;;;;;;;1.25;1.00;;;17.30;64.50;;;;;;5032152;28;20079;-65
2022/02/09 12:35:16;;;;;;;1.48;0.95;;;17.30;64.50;;;;;;5015062;28;20025;-65
2022/02/09 12:37:44;;;;;;;1.25;1.00;;;17.30;64.50;;;;;;5016329;28;20495;-65
2022/02/09 12:40:15;;;;;;;1.25;0.90;;;17.30;64.50;;;;;;5032252;28;20033;-65
2022/02/09 12:42:45;;;;;;;0.80;0.80;;;17.30;64.50;;;;;;5014939;28;20041;-65
2022/02/09 12:45:17;;;;;;;1.67;0.93;;;17.40;64.50;;;;;;5015501;28;20032;-65
2022/02/09 12:47:58;;;;;;;1.23;0.95;;;17.40;64.50;;;;;;4997629;28;20030;-65
2022/02/09 12:50:33;;;;;;;0.80;0.80;;;17.30;64.50;;;;;;5016612;28;20084;-65
2022/02/09 12:52:58;;;;;;;1.20;1.10;;;17.30;64.50;;;;;;5034846;28;20491;-65
2022/02/09 12:55:25;;;;;;;1.00;0.90;;;17.30;64.50;;;;;;5038870;28;20033;-65
2022/02/09 12:57:57;;;;;;;1.23;0.73;;;17.30;64.50;;;;;;5038757;28;20025;-65
2022/02/09 13:00:53;;;;;;;0.82;0.80;;;17.30;64.40;;;;;;5022031;28;20025;-65
2022/02/09 13:03:20;;;;;;;0.88;0.80;;;17.30;64.50;;;;;;5035391;28;20065;-65
2022/02/09 13:05:52;;;;;;;1.15;0.93;;;17.30;64.50;;;;;;5038666;28;20025;-65
2022/02/09 13:08:23;;;;;;;0.65;0.65;;;17.30;64.50;;;;;;5021782;28;20045;-65
2022/02/09 13:10:49;;;;;;;0.73;0.57;;;17.30;64.50;;;;;;5004568;28;20018;-64
2022/02/09 13:13:24;;;;;;;0.77;0.77;;;17.30;64.50;;;;;;5038635;28;20078;-65
2022/02/09 14:54:06;;;;;;;0.73;0.73;;;17.30;64.50;;;;;;5033987;28;20028;-65
2022/02/09 14:56:49;;;;;;;0.70;0.60;;;17.30;64.50;;;;;;5034415;28;20108;-65
2022/02/09 14:59:22;;;;;;;0.55;0.50;;;17.30;64.60;;;;;;5033882;28;20022;-65
2022/02/09 15:01:57;;;;;;;0.88;0.60;;;17.30;64.60;;;;;;5033863;28;20021;-65
2022/02/09 15:07:03;;;;;;;0.88;0.80;;;17.30;64.50;;;;;;5034085;28;20021;-64
2022/02/09 15:15:02;;;;;;;0.95;0.85;;;17.30;64.50;;;;;;5033617;28;20053;-65
2022/02/09 15:20:37;;;;;;;0.57;0.57;;;17.30;64.50;;;;;;5033998;28;20030;-65
2022/02/09 15:22:57;;;;;;;0.50;0.50;;;17.30;64.50;;;;;;5033224;28;20033;-65
2022/02/09 15:25:23;;;;;;;0.70;0.70;;;17.30;64.50;;;;;;5033709;28;20116;-65
2022/02/09 15:27:53;;;;;;;0.60;0.43;;;17.30;64.50;;;;;;5033290;28;20511;-65
2022/02/09 15:30:19;;;;;;;0.52;0.50;;;17.30;64.50;;;;;;5016594;28;20090;-65
2022/02/09 15:32:50;;;;;;;0.70;0.70;;;17.30;64.50;;;;;;5033383;28;20442;-65
2022/02/09 15:35:23;;;;;;;1.25;0.60;;;17.30;64.40;;;;;;5033524;28;20540;-64
2022/02/09 15:37:56;;;;;;;;;;;17.30;64.50;;;;;;5033760;28;20048;-65
2022/02/09 15:40:42;;;;;;;0.77;0.47;;;17.30;64.40;;;;;;5033456;28;20441;-64
2022/02/09 15:56:57;;;;;;;0.73;0.52;;;17.30;64.60;;;;;;5013185;28;20089;-65
2022/02/09 16:23:25;;;;;;;0.73;0.60;;;17.30;64.50;;;;;;5015540;28;20029;-64
2022/02/09 16:44:17;;;;;;;0.70;0.60;;;17.30;64.50;;;;;;5016072;28;20021;-64
2022/02/09 16:44:40;;;;;;;0.60;0.60;;;17.30;64.50;;;;;;4964751;28;20568;-65
2022/02/09 16:50:04;;;;;;;0.70;0.50;;;17.30;64.50;;;;;;4966107;28;20058;-65
2022/02/09 16:52:45;;;;;;;0.80;0.80;;;17.30;64.50;;;;;;4952110;29;20038;-65
2022/02/09 17:19:52;;;;;;;0.40;0.30;;;17.40;64.80;;;;;;4857746;29;20456;-64
2022/02/09 17:22:18;;;;;;;0.68;0.60;;;17.40;64.70;;;;;;4859638;29;20049;-64
2022/02/09 17:24:44;;;;;;;0.47;0.47;;;17.50;64.70;;;;;;4857342;29;20120;-64
2022/02/09 17:27:16;;;;;;;0.50;0.50;;;17.50;64.60;;;;;;4855728;29;20049;-64
2022/02/09 17:53:29;;;;;;;0.70;0.70;;;17.90;64.80;;;;;;4938407;28;20498;-71
2022/02/09 17:58:37;;;;;;;0.70;0.65;;;18.00;64.80;;;;;;5001525;28;20056;-69
2022/02/09 18:01:04;;;;;;;0.68;0.60;;;18.00;64.70;;;;;;5015769;28;20025;-69
2022/02/09 18:03:30;;;;;;;0.60;0.60;;;18.10;64.70;;;;;;5034766;28;20021;-68
2022/02/09 18:06:07;;;;;;;1.30;0.93;;;18.20;64.60;;;;;;5016399;28;20029;-73
2022/02/09 18:08:48;;;;;;;1.02;0.80;;;18.20;64.40;;;;;;5018409;28;20014;-77
2022/02/09 18:11:26;;;;;;;0.70;0.50;;;18.20;64.50;;;;;;5033399;28;20108;-75
2022/02/09 18:28:34;;;;;;;0.70;0.63;;;18.60;64.80;;;;;;5019786;28;20112;-76
2022/02/09 18:30:55;;;;;;;1.05;0.40;;;18.70;64.80;;;;;;5021317;28;20086;-75
2022/02/09 18:42:36;;;;;;;0.80;0.60;;;19.00;64.80;;;;;;5033507;28;20044;-76
2022/02/09 18:44:40;;;;;;;1.08;0.63;;;19.10;64.70;;;;;;5033317;28;20083;-75
2022/02/09 18:47:27;;;;;;;0.70;0.47;;;19.10;64.70;;;;;;5017938;28;20021;-75
2022/02/09 18:59:22;;;;;;;0.68;0.57;;;19.30;64.50;;;;;;5018462;28;20032;-75
2022/02/09 19:03:58;;;;;;;1.08;0.52;;;19.40;64.50;;;;;;5017689;28;20495;-74
2022/02/09 19:06:38;;;;;;;0.55;0.40;;;19.50;64.50;;;;;;5032984;28;20040;-74
2022/02/09 19:14:28;;;;;;;4.05;0.50;;;19.60;64.30;;;;;;5018093;28;20029;-73
2022/02/09 19:17:00;;;;;;;0.50;0.50;;;19.70;64.30;;;;;;5017185;28;20466;-74
2022/02/09 19:28:03;;;;;;;0.50;0.50;;;19.80;64.10;;;;;;5018395;28;20031;-74
2022/02/09 19:49:38;;;;;;;0.50;0.50;;;20.10;63.80;;;;;;5032354;28;20028;-74
2022/02/09 19:57:12;;;;;;;0.52;0.52;;;20.30;63.80;;;;;;5017593;28;20083;-75
2022/02/09 19:59:40;;;;;;;0.52;0.40;;;20.30;63.70;;;;;;5014616;28;20025;-75
2022/02/09 20:02:08;;;;;;;0.40;0.40;;;20.30;63.70;;;;;;5013964;28;20096;-74
2022/02/09 20:04:34;;;;;;;0.50;0.50;;;20.40;63.70;;;;;;5032315;28;20017;-74
2022/02/09 20:07:02;;;;;;;0.77;0.50;;;20.40;63.60;;;;;;5032495;28;20069;-75
2022/02/09 20:09:29;;;;;;;0.88;0.50;;;20.40;63.50;;;;;;5012808;28;20010;-77
2022/02/09 20:11:55;;;;;;;0.85;0.60;;;20.50;63.50;;;;;;5031709;28;20013;-83
2022/02/09 20:14:22;;;;;;;0.40;0.40;;;20.50;63.40;;;;;;5014157;28;20052;-87
2022/02/09 20:16:52;;;;;;;0.50;0.50;;;20.60;63.50;;;;;;5013775;28;20080;-84
2022/02/09 20:19:18;;;;;;;0.40;0.40;;;20.60;63.40;;;;;;5014918;28;20013;-79
2022/02/09 20:21:45;;;;;;;0.55;0.50;;;20.60;63.40;;;;;;5013959;28;20025;-78
2022/02/09 20:24:15;;;;;;;0.50;0.50;;;20.70;63.30;;;;;;5014447;28;20014;-78
2022/02/09 20:26:42;;;;;;;0.50;0.50;;;20.70;63.40;;;;;;5014565;28;20021;-78
2022/02/09 20:29:18;;;;;;;0.40;0.40;;;20.70;63.90;;;;;;5031801;28;20018;-72
2022/02/09 20:31:51;;;;;;;0.50;0.50;;;20.70;63.20;;;;;;5015350;28;20132;-76
2022/02/09 20:34:31;;;;;;;0.40;0.40;;;20.80;63.20;;;;;;5031202;28;20014;-79
2022/02/09 20:36:58;;;;;;;0.50;0.50;;;20.80;63.10;;;;;;5032631;28;20027;-84
2022/02/09 20:39:31;;;;;;;0.25;0.25;;;20.80;63.20;;;;;;5015270;28;20115;-85
2022/02/09 20:41:59;;;;;;;0.52;0.50;;;20.80;63.00;;;;;;5014699;28;20056;-65
2022/02/09 20:44:41;;;;;;;1.13;1.02;;;20.90;62.70;;;;;;5032495;28;20549;-69
2022/02/09 20:47:08;;;;;;;0.80;0.80;;;20.80;62.00;;;;;;5012276;28;20437;-66
2022/02/09 20:49:34;;;;;;;1.30;0.80;;;20.70;62.50;;;;;;5012359;28;20029;-66
2022/02/09 20:52:00;;;;;;;0.73;0.73;;;20.70;62.60;;;;;;5017231;28;20021;-66
2022/02/09 20:54:25;;;;;;;0.57;0.57;;;20.80;62.60;;;;;;5032319;28;20486;-66
2022/02/09 20:56:51;;;;;;;1.08;0.52;;;20.80;62.60;;;;;;5032067;28;20037;-66
2022/02/09 20:59:18;;;;;;;0.88;0.70;;;20.80;62.50;;;;;;5014779;28;20025;-66
2022/02/09 21:04:15;;;;;;;0.55;0.55;;;20.80;62.40;;;;;;5032393;28;20029;-66
2022/02/09 21:12:48;;;;;;;0.50;0.50;;;20.80;62.20;;;;;;5032567;28;20044;-66
2022/02/09 21:18:34;;;;;;;1.45;0.57;;;20.80;62.20;;;;;;5036721;28;20026;-66
2022/02/09 21:23:09;;;;;;;0.52;0.52;;;20.90;62.20;;;;;;5036351;28;20025;-66
2022/02/09 21:44:55;;;;;;;0.68;0.68;;;20.80;61.90;;;;;;5033244;28;20084;-66
2022/02/09 21:55:26;;;;;;;0.50;0.47;;;20.80;61.80;;;;;;5035934;28;20026;-66
2022/02/09 21:58:06;;;;;;;0.50;0.50;;;20.80;61.80;;;;;;5018811;28;20415;-66
2022/02/09 22:00:43;;;;;;;0.60;0.60;;;20.80;61.80;;;;;;5035828;28;20040;-66
2022/02/09 22:19:10;;;;;;;0.50;0.50;;;20.80;62.80;;;;;;5035059;28;20120;-66
2022/02/09 22:22:28;;;;;;;0.98;0.60;;;20.80;61.80;;;;;;5034825;28;20049;-66
2022/02/09 22:27:44;;;;;;;0.50;0.50;;;20.80;61.70;;;;;;5034809;28;20044;-66
2022/02/09 22:49:48;;;;;;;0.50;0.50;;;20.90;61.80;;;;;;4954516;29;20022;-66
2022/02/09 22:55:13;;;;;;;0.30;0.30;;;20.90;61.80;;;;;;4916200;29;20036;-66
2022/02/09 23:00:17;;;;;;;0.40;0.40;;;20.90;61.70;;;;;;4897164;29;20069;-66
2022/02/09 23:02:49;;;;;;;1.05;0.47;;;20.90;61.70;;;;;;4882783;29;20100;-66
2022/02/09 23:05:38;;;;;;;0.75;0.40;;;20.90;61.70;;;;;;4897016;29;20024;-66
2022/02/09 23:13:34;;;;;;;1.65;0.50;;;20.90;61.80;;;;;;4878231;29;20454;-66
2022/02/09 23:21:31;;;;;;;0.50;0.50;;;20.90;61.70;;;;;;4877900;29;20029;-66
